sensor_id;sensor_type;location;lat;lon;timestamp;P1;durP1;ratioP1;P2;durP2;ratioP2
3633;SDS011;1833;42.718;23.270;2023-01-05T10:41:19;45.07;;;40.47;;
3633;SDS011;1833;42.718;23.270;2023-01-05T10:47:02;42.13;;;37.83;;
3633;SDS011;1833;42.718;23.270;2023-01-05T10:49:30;40.63;;;36.47;;
3633;SDS011;1833;42.718;23.270;2023-01-05T10:51:59;42.60;;;37.90;;
3633;SDS011;1833;42.718;23.270;2023-01-05T10:54:31;40.50;;;36.10;;
3633;SDS011;1833;42.718;23.270;2023-01-05T10:59:54;37.87;;;33.77;;
3633;SDS011;1833;42.718;23.270;2023-01-05T11:02:22;35.10;;;31.40;;
3633;SDS011;1833;42.718;23.270;2023-01-05T11:04:50;36.70;;;31.57;;
3633;SDS011;1833;42.718;23.270;2023-01-05T11:07:19;32.37;;;29.27;;
3633;SDS011;1833;42.718;23.270;2023-01-05T11:10:28;33.03;;;29.63;;
3633;SDS011;1833;42.718;23.270;2023-01-05T15:14:20;31.87;;;28.77;;
3633;SDS011;1833;42.718;23.270;2023-01-05T15:17:01;37.20;;;32.27;;
3633;SDS011;1833;42.718;23.270;2023-01-05T15:19:35;34.70;;;31.10;;
3633;SDS011;1833;42.718;23.270;2023-01-05T15:22:12;32.30;;;29.00;;
3633;SDS011;1833;42.718;23.270;2023-01-05T15:24:54;31.43;;;28.03;;
3633;SDS011;1833;42.718;23.270;2023-01-05T15:33:14;32.67;;;29.27;;
3633;SDS011;1833;42.718;23.270;2023-01-05T15:35:42;31.93;;;28.63;;
3633;SDS011;1833;42.718;23.270;2023-01-05T15:38:11;30.83;;;27.73;;
3633;SDS011;1833;42.718;23.270;2023-01-05T15:40:39;30.27;;;27.40;;
3633;SDS011;1833;42.718;23.270;2023-01-05T15:43:10;29.97;;;26.33;;
3633;SDS011;1833;42.718;23.270;2023-01-05T15:45:39;28.60;;;26.00;;
3633;SDS011;1833;42.718;23.270;2023-01-05T15:48:08;30.73;;;27.70;;
3633;SDS011;1833;42.718;23.270;2023-01-05T15:50:38;31.00;;;27.90;;
3633;SDS011;1833;42.718;23.270;2023-01-05T15:53:21;29.23;;;26.23;;
3633;SDS011;1833;42.718;23.270;2023-01-05T15:55:48;29.87;;;27.17;;
3633;SDS011;1833;42.718;23.270;2023-01-05T15:58:17;29.17;;;26.37;;
3633;SDS011;1833;42.718;23.270;2023-01-05T16:00:58;32.40;;;26.57;;
3633;SDS011;1833;42.718;23.270;2023-01-05T16:03:26;32.37;;;27.40;;
3633;SDS011;1833;42.718;23.270;2023-01-05T16:05:56;34.30;;;30.63;;
3633;SDS011;1833;42.718;23.270;2023-01-05T16:08:24;31.60;;;28.33;;
3633;SDS011;1833;42.718;23.270;2023-01-05T16:10:52;31.97;;;28.40;;
3633;SDS011;1833;42.718;23.270;2023-01-05T16:13:24;30.77;;;27.63;;
3633;SDS011;1833;42.718;23.270;2023-01-05T16:15:54;31.83;;;28.53;;
3633;SDS011;1833;42.718;23.270;2023-01-05T16:18:23;33.67;;;30.23;;
3633;SDS011;1833;42.718;23.270;2023-01-05T16:20:51;31.00;;;27.63;;
3633;SDS011;1833;42.718;23.270;2023-01-05T16:23:22;29.93;;;26.60;;
3633;SDS011;1833;42.718;23.270;2023-01-05T16:25:51;31.57;;;28.10;;
3633;SDS011;1833;42.718;23.270;2023-01-05T16:28:19;28.83;;;26.20;;
3633;SDS011;1833;42.718;23.270;2023-01-05T16:30:48;29.53;;;26.63;;
3633;SDS011;1833;42.718;23.270;2023-01-05T16:33:26;28.60;;;25.80;;
3633;SDS011;1833;42.718;23.270;2023-01-05T16:36:11;29.53;;;26.70;;
3633;SDS011;1833;42.718;23.270;2023-01-05T16:38:40;30.83;;;27.63;;
3633;SDS011;1833;42.718;23.270;2023-01-05T16:41:08;29.97;;;27.10;;
3633;SDS011;1833;42.718;23.270;2023-01-05T16:43:39;30.33;;;27.43;;
3633;SDS011;1833;42.718;23.270;2023-01-05T16:46:23;31.33;;;27.00;;
3633;SDS011;1833;42.718;23.270;2023-01-05T16:48:53;29.90;;;26.87;;
3633;SDS011;1833;42.718;23.270;2023-01-05T16:51:21;29.50;;;26.33;;
3633;SDS011;1833;42.718;23.270;2023-01-05T16:53:50;29.17;;;26.33;;
3633;SDS011;1833;42.718;23.270;2023-01-05T16:56:18;29.20;;;26.27;;
3633;SDS011;1833;42.718;23.270;2023-01-05T16:58:46;32.43;;;28.70;;
3633;SDS011;1833;42.718;23.270;2023-01-05T17:01:14;29.47;;;26.57;;
3633;SDS011;1833;42.718;23.270;2023-01-05T17:03:42;31.43;;;25.20;;
3633;SDS011;1833;42.718;23.270;2023-01-05T17:06:12;26.97;;;24.27;;
3633;SDS011;1833;42.718;23.270;2023-01-05T17:08:42;29.97;;;27.17;;
3633;SDS011;1833;42.718;23.270;2023-01-05T17:11:11;30.00;;;27.03;;
3633;SDS011;1833;42.718;23.270;2023-01-05T17:13:39;28.87;;;25.90;;
3633;SDS011;1833;42.718;23.270;2023-01-05T17:16:09;30.63;;;27.50;;
3633;SDS011;1833;42.718;23.270;2023-01-05T17:18:37;29.90;;;26.70;;
3633;SDS011;1833;42.718;23.270;2023-01-05T17:21:05;28.87;;;26.00;;
3633;SDS011;1833;42.718;23.270;2023-01-05T17:23:34;29.37;;;26.53;;
3633;SDS011;1833;42.718;23.270;2023-01-05T17:26:03;28.90;;;26.10;;
3633;SDS011;1833;42.718;23.270;2023-01-05T17:28:33;31.07;;;28.27;;
3633;SDS011;1833;42.718;23.270;2023-01-05T17:31:00;29.60;;;26.80;;
3633;SDS011;1833;42.718;23.270;2023-01-05T17:33:28;29.07;;;26.03;;
3633;SDS011;1833;42.718;23.270;2023-01-05T17:35:55;33.93;;;27.30;;
3633;SDS011;1833;42.718;23.270;2023-01-05T17:38:23;30.83;;;27.70;;
3633;SDS011;1833;42.718;23.270;2023-01-05T17:40:50;31.40;;;28.30;;
3633;SDS011;1833;42.718;23.270;2023-01-05T17:43:18;31.33;;;27.60;;
3633;SDS011;1833;42.718;23.270;2023-01-05T17:45:47;29.00;;;26.30;;
3633;SDS011;1833;42.718;23.270;2023-01-05T17:48:14;30.17;;;27.00;;
3633;SDS011;1833;42.718;23.270;2023-01-05T17:50:41;29.30;;;26.57;;
3633;SDS011;1833;42.718;23.270;2023-01-05T17:53:08;29.87;;;27.00;;
3633;SDS011;1833;42.718;23.270;2023-01-05T17:55:37;31.50;;;27.37;;
3633;SDS011;1833;42.718;23.270;2023-01-05T17:58:05;32.17;;;28.60;;
3633;SDS011;1833;42.718;23.270;2023-01-05T18:00:38;31.20;;;27.90;;
3633;SDS011;1833;42.718;23.270;2023-01-05T18:03:11;32.03;;;28.57;;
3633;SDS011;1833;42.718;23.270;2023-01-05T18:05:40;31.10;;;27.80;;
3633;SDS011;1833;42.718;23.270;2023-01-05T18:08:08;29.77;;;26.70;;
